sensor_id;sensor_type;location;lat;lon;timestamp;temperature;humidity
67722;SHT31;58309;45.292;11.820;2022-08-19T00:01:39;19.85;98.86
67722;SHT31;58309;45.292;11.820;2022-08-19T00:04:08;19.81;98.83
67722;SHT31;58309;45.292;11.820;2022-08-19T00:06:35;19.81;99.01
67722;SHT31;58309;45.292;11.820;2022-08-19T00:09:01;19.82;99.09
67722;SHT31;58309;45.292;11.820;2022-08-19T00:11:29;19.90;99.38
67722;SHT31;58309;45.292;11.820;2022-08-19T00:13:55;19.95;99.62
67722;SHT31;58309;45.292;11.820;2022-08-19T00:16:22;19.90;99.68
67722;SHT31;58309;45.292;11.820;2022-08-19T00:18:48;19.86;99.53
67722;SHT31;58309;45.292;11.820;2022-08-19T00:21:14;19.87;99.66
67722;SHT31;58309;45.292;11.820;2022-08-19T00:23:41;19.99;99.99
67722;SHT31;58309;45.292;11.820;2022-08-19T00:26:09;20.06;99.99
67722;SHT31;58309;45.292;11.820;2022-08-19T00:28:35;19.90;99.23
67722;SHT31;58309;45.292;11.820;2022-08-19T00:31:03;19.87;99.43
67722;SHT31;58309;45.292;11.820;2022-08-19T00:33:30;19.81;99.50
67722;SHT31;58309;45.292;11.820;2022-08-19T00:35:58;19.76;99.66
67722;SHT31;58309;45.292;11.820;2022-08-19T00:38:24;19.79;99.88
67722;SHT31;58309;45.292;11.820;2022-08-19T00:40:49;19.76;99.96
67722;SHT31;58309;45.292;11.820;2022-08-19T00:43:19;19.76;99.87
67722;SHT31;58309;45.292;11.820;2022-08-19T00:45:45;19.72;99.69
67722;SHT31;58309;45.292;11.820;2022-08-19T00:48:12;19.69;99.52
67722;SHT31;58309;45.292;11.820;2022-08-19T00:50:39;19.65;99.70
67722;SHT31;58309;45.292;11.820;2022-08-19T00:53:10;19.66;99.99
67722;SHT31;58309;45.292;11.820;2022-08-19T00:55:37;19.65;99.96
67722;SHT31;58309;45.292;11.820;2022-08-19T00:58:07;19.66;99.87
67722;SHT31;58309;45.292;11.820;2022-08-19T01:00:34;19.69;99.56
67722;SHT31;58309;45.292;11.820;2022-08-19T01:03:04;19.64;99.32
67722;SHT31;58309;45.292;11.820;2022-08-19T01:05:31;19.59;99.60
67722;SHT31;58309;45.292;11.820;2022-08-19T01:07:58;19.61;99.65
67722;SHT31;58309;45.292;11.820;2022-08-19T01:10:27;19.64;98.97
67722;SHT31;58309;45.292;11.820;2022-08-19T01:12:54;19.57;99.40
67722;SHT31;58309;45.292;11.820;2022-08-19T01:15:23;19.65;99.11
67722;SHT31;58309;45.292;11.820;2022-08-19T01:17:51;19.62;99.24
67722;SHT31;58309;45.292;11.820;2022-08-19T01:20:20;19.59;99.45
67722;SHT31;58309;45.292;11.820;2022-08-19T01:22:57;19.62;99.99
67722;SHT31;58309;45.292;11.820;2022-08-19T01:25:30;19.62;99.99
67722;SHT31;58309;45.292;11.820;2022-08-19T01:27:56;19.71;99.99
67722;SHT31;58309;45.292;11.820;2022-08-19T01:30:28;19.69;99.99
67722;SHT31;58309;45.292;11.820;2022-08-19T01:32:55;19.65;99.66
67722;SHT31;58309;45.292;11.820;2022-08-19T01:35:23;19.59;99.80
67722;SHT31;58309;45.292;11.820;2022-08-19T01:37:59;19.59;99.96
67722;SHT31;58309;45.292;11.820;2022-08-19T01:40:28;19.64;99.99
67722;SHT31;58309;45.292;11.820;2022-08-19T01:42:54;19.66;99.99
67722;SHT31;58309;45.292;11.820;2022-08-19T01:45:22;19.62;99.99
67722;SHT31;58309;45.292;11.820;2022-08-19T01:47:48;19.65;99.99
67722;SHT31;58309;45.292;11.820;2022-08-19T01:50:14;19.65;99.99
67722;SHT31;58309;45.292;11.820;2022-08-19T01:52:41;19.74;99.99
67722;SHT31;58309;45.292;11.820;2022-08-19T01:55:11;19.71;99.99
67722;SHT31;58309;45.292;11.820;2022-08-19T01:57:38;19.65;99.99
67722;SHT31;58309;45.292;11.820;2022-08-19T02:00:08;19.72;99.99
67722;SHT31;58309;45.292;11.820;2022-08-19T02:02:34;19.76;99.79
67722;SHT31;58309;45.292;11.820;2022-08-19T02:04:59;19.75;99.87
67722;SHT31;58309;45.292;11.820;2022-08-19T02:07:25;19.79;99.99
67722;SHT31;58309;45.292;11.820;2022-08-19T02:09:50;19.78;99.93
67722;SHT31;58309;45.292;11.820;2022-08-19T02:12:16;19.71;99.79
67722;SHT31;58309;45.292;11.820;2022-08-19T02:14:42;19.74;99.88
67722;SHT31;58309;45.292;11.820;2022-08-19T02:17:08;19.68;99.24
67722;SHT31;58309;45.292;11.820;2022-08-19T02:19:33;19.65;99.23
67722;SHT31;58309;45.292;11.820;2022-08-19T02:21:59;19.68;99.42
67722;SHT31;58309;45.292;11.820;2022-08-19T02:24:26;19.68;99.69
67722;SHT31;58309;45.292;11.820;2022-08-19T02:26:52;19.68;99.71
67722;SHT31;58309;45.292;11.820;2022-08-19T02:29:17;19.69;99.55
67722;SHT31;58309;45.292;11.820;2022-08-19T02:31:43;19.68;99.54
67722;SHT31;58309;45.292;11.820;2022-08-19T02:34:08;19.64;99.42
67722;SHT31;58309;45.292;11.820;2022-08-19T02:36:34;19.57;99.68
67722;SHT31;58309;45.292;11.820;2022-08-19T02:38:59;19.58;99.52
67722;SHT31;58309;45.292;11.820;2022-08-19T02:41:28;19.61;99.47
67722;SHT31;58309;45.292;11.820;2022-08-19T02:43:55;19.57;99.54
67722;SHT31;58309;45.292;11.820;2022-08-19T02:46:28;19.47;99.48
67722;SHT31;58309;45.292;11.820;2022-08-19T02:48:56;19.39;99.66
67722;SHT31;58309;45.292;11.820;2022-08-19T02:51:28;19.34;99.84
67722;SHT31;58309;45.292;11.820;2022-08-19T02:53:54;19.27;99.76
67722;SHT31;58309;45.292;11.820;2022-08-19T02:56:21;19.32;99.99
67722;SHT31;58309;45.292;11.820;2022-08-19T02:58:47;19.25;99.99
67722;SHT31;58309;45.292;11.820;2022-08-19T03:01:27;19.18;99.99
67722;SHT31;58309;45.292;11.820;2022-08-19T03:03:53;19.13;99.99
67722;SHT31;58309;45.292;11.820;2022-08-19T03:06:20;19.10;99.99
67722;SHT31;58309;45.292;11.820;2022-08-19T03:08:46;19.07;99.99
67722;SHT31;58309;45.292;11.820;2022-08-19T03:11:30;19.03;99.99
67722;SHT31;58309;45.292;11.820;2022-08-19T03:13:57;19.03;99.99
67722;SHT31;58309;45.292;11.820;2022-08-19T03:16:25;19.07;99.99
67722;SHT31;58309;45.292;11.820;2022-08-19T03:18:52;19.00;99.99
67722;SHT31;58309;45.292;11.820;2022-08-19T03:21:22;18.94;99.99
67722;SHT31;58309;45.292;11.820;2022-08-19T03:23:49;18.92;99.99
67722;SHT31;58309;45.292;11.820;2022-08-19T03:26:15;18.93;99.99
67722;SHT31;58309;45.292;11.820;2022-08-19T03:28:42;18.86;99.99
67722;SHT31;58309;45.292;11.820;2022-08-19T03:31:11;18.93;99.99
67722;SHT31;58309;45.292;11.820;2022-08-19T03:33:38;18.87;99.99
67722;SHT31;58309;45.292;11.820;2022-08-19T03:36:14;18.87;99.99
67722;SHT31;58309;45.292;11.820;2022-08-19T03:38:42;18.86;99.99
67722;SHT31;58309;45.292;11.820;2022-08-19T03:41:20;18.90;99.99
67722;SHT31;58309;45.292;11.820;2022-08-19T03:43:46;18.93;99.99
67722;SHT31;58309;45.292;11.820;2022-08-19T03:46:16;18.90;99.99
67722;SHT31;58309;45.292;11.820;2022-08-19T03:48:43;18.87;99.99
67722;SHT31;58309;45.292;11.820;2022-08-19T03:51:33;18.82;99.99
67722;SHT31;58309;45.292;11.820;2022-08-19T03:54:02;18.76;99.99
67722;SHT31;58309;45.292;11.820;2022-08-19T03:56:28;18.73;99.99
67722;SHT31;58309;45.292;11.820;2022-08-19T03:58:55;18.67;99.99
67722;SHT31;58309;45.292;11.820;2022-08-19T04:01:23;18.65;99.99
67722;SHT31;58309;45.292;11.820;2022-08-19T04:03:49;18.62;99.99
67722;SHT31;58309;45.292;11.820;2022-08-19T04:08:42;18.63;99.99
67722;SHT31;58309;45.292;11.820;2022-08-19T04:11:10;18.67;99.99
67722;SHT31;58309;45.292;11.820;2022-08-19T04:13:36;18.72;99.99
67722;SHT31;58309;45.292;11.820;2022-08-19T04:16:02;18.77;99.99
67722;SHT31;58309;45.292;11.820;2022-08-19T04:18:28;18.83;99.99
67722;SHT31;58309;45.292;11.820;2022-08-19T04:20:55;18.83;99.99
67722;SHT31;58309;45.292;11.820;2022-08-19T04:23:20;18.94;99.99
67722;SHT31;58309;45.292;11.820;2022-08-19T04:25:46;18.99;99.99
67722;SHT31;58309;45.292;11.820;2022-08-19T04:28:12;18.99;99.99
67722;SHT31;58309;45.292;11.820;2022-08-19T04:30:41;19.03;99.99
67722;SHT31;58309;45.292;11.820;2022-08-19T04:33:07;19.07;99.99
67722;SHT31;58309;45.292;11.820;2022-08-19T04:35:38;19.03;99.99
67722;SHT31;58309;45.292;11.820;2022-08-19T04:38:04;19.07;99.99
67722;SHT31;58309;45.292;11.820;2022-08-19T04:40:30;19.11;99.99
67722;SHT31;58309;45.292;11.820;2022-08-19T04:43:14;19.14;99.99
67722;SHT31;58309;45.292;11.820;2022-08-19T04:45:41;19.14;99.99
67722;SHT31;58309;45.292;11.820;2022-08-19T04:48:06;19.15;99.99
67722;SHT31;58309;45.292;11.820;2022-08-19T04:50:32;19.21;99.99
67722;SHT31;58309;45.292;11.820;2022-08-19T04:52:58;19.18;99.99
67722;SHT31;58309;45.292;11.820;2022-08-19T04:55:24;19.15;99.99
67722;SHT31;58309;45.292;11.820;2022-08-19T04:57:50;19.23;99.99
67722;SHT31;58309;45.292;11.820;2022-08-19T05:00:16;19.23;99.99
67722;SHT31;58309;45.292;11.820;2022-08-19T05:02:42;19.27;99.99
67722;SHT31;58309;45.292;11.820;2022-08-19T05:05:07;19.28;99.64
67722;SHT31;58309;45.292;11.820;2022-08-19T05:07:33;19.35;99.71
67722;SHT31;58309;45.292;11.820;2022-08-19T05:09:59;19.35;99.37
67722;SHT31;58309;45.292;11.820;2022-08-19T05:12:25;19.41;99.50
67722;SHT31;58309;45.292;11.820;2022-08-19T05:14:50;19.48;99.29
67722;SHT31;58309;45.292;11.820;2022-08-19T05:17:17;19.48;98.51
67722;SHT31;58309;45.292;11.820;2022-08-19T05:19:42;19.54;98.53
67722;SHT31;58309;45.292;11.820;2022-08-19T05:22:26;19.48;98.09
67722;SHT31;58309;45.292;11.820;2022-08-19T05:25:06;19.50;98.37
67722;SHT31;58309;45.292;11.820;2022-08-19T05:27:32;19.45;98.60
67722;SHT31;58309;45.292;11.820;2022-08-19T05:29:58;19.39;98.65
67722;SHT31;58309;45.292;11.820;2022-08-19T05:32:24;19.38;98.74
67722;SHT31;58309;45.292;11.820;2022-08-19T05:34:49;19.35;98.56
67722;SHT31;58309;45.292;11.820;2022-08-19T05:37:15;19.36;99.07
67722;SHT31;58309;45.292;11.820;2022-08-19T05:39:50;19.41;99.27
67722;SHT31;58309;45.292;11.820;2022-08-19T05:42:16;19.45;99.11
67722;SHT31;58309;45.292;11.820;2022-08-19T05:44:43;19.50;98.25
67722;SHT31;58309;45.292;11.820;2022-08-19T05:47:10;19.57;98.16
67722;SHT31;58309;45.292;11.820;2022-08-19T05:49:36;19.62;97.53
67722;SHT31;58309;45.292;11.820;2022-08-19T05:52:04;19.69;97.67
67722;SHT31;58309;45.292;11.820;2022-08-19T05:54:30;19.74;97.44
67722;SHT31;58309;45.292;11.820;2022-08-19T05:56:56;19.75;96.83
67722;SHT31;58309;45.292;11.820;2022-08-19T05:59:22;19.76;96.80
67722;SHT31;58309;45.292;11.820;2022-08-19T06:01:49;19.79;96.60
67722;SHT31;58309;45.292;11.820;2022-08-19T06:04:21;19.81;96.37
67722;SHT31;58309;45.292;11.820;2022-08-19T06:06:51;19.82;97.06
67722;SHT31;58309;45.292;11.820;2022-08-19T06:09:17;19.83;96.41
67722;SHT31;58309;45.292;11.820;2022-08-19T06:11:46;19.89;96.07
67722;SHT31;58309;45.292;11.820;2022-08-19T06:14:16;19.95;95.62
67722;SHT31;58309;45.292;11.820;2022-08-19T06:16:43;20.06;94.79
67722;SHT31;58309;45.292;11.820;2022-08-19T06:19:12;20.23;95.29
67722;SHT31;58309;45.292;11.820;2022-08-19T06:21:39;20.39;94.26
67722;SHT31;58309;45.292;11.820;2022-08-19T06:24:08;20.48;93.79
67722;SHT31;58309;45.292;11.820;2022-08-19T06:26:36;20.57;94.05
67722;SHT31;58309;45.292;11.820;2022-08-19T06:29:03;20.55;94.09
67722;SHT31;58309;45.292;11.820;2022-08-19T06:31:31;20.53;94.52
67722;SHT31;58309;45.292;11.820;2022-08-19T06:33:58;20.48;94.24
67722;SHT31;58309;45.292;11.820;2022-08-19T06:36:27;20.37;94.10
67722;SHT31;58309;45.292;11.820;2022-08-19T06:38:55;20.33;94.22
67722;SHT31;58309;45.292;11.820;2022-08-19T06:41:22;20.29;95.01
67722;SHT31;58309;45.292;11.820;2022-08-19T06:43:47;20.22;94.35
67722;SHT31;58309;45.292;11.820;2022-08-19T06:46:16;20.19;94.19
67722;SHT31;58309;45.292;11.820;2022-08-19T06:48:42;20.13;94.45
67722;SHT31;58309;45.292;11.820;2022-08-19T06:51:08;20.12;94.32
67722;SHT31;58309;45.292;11.820;2022-08-19T06:53:35;20.09;94.67
67722;SHT31;58309;45.292;11.820;2022-08-19T06:56:01;20.05;94.94
67722;SHT31;58309;45.292;11.820;2022-08-19T06:58:30;20.03;95.46
67722;SHT31;58309;45.292;11.820;2022-08-19T07:01:01;20.00;95.14
67722;SHT31;58309;45.292;11.820;2022-08-19T07:03:29;20.02;95.45
67722;SHT31;58309;45.292;11.820;2022-08-19T07:05:56;19.99;95.08
67722;SHT31;58309;45.292;11.820;2022-08-19T07:08:21;20.03;94.97
67722;SHT31;58309;45.292;11.820;2022-08-19T07:10:47;19.99;94.94
67722;SHT31;58309;45.292;11.820;2022-08-19T07:13:14;19.96;95.00
67722;SHT31;58309;45.292;11.820;2022-08-19T07:15:39;19.99;96.00
67722;SHT31;58309;45.292;11.820;2022-08-19T07:18:05;19.96;95.20
67722;SHT31;58309;45.292;11.820;2022-08-19T07:20:30;19.95;95.40
67722;SHT31;58309;45.292;11.820;2022-08-19T07:22:58;19.96;95.28
67722;SHT31;58309;45.292;11.820;2022-08-19T07:25:23;19.97;94.45
67722;SHT31;58309;45.292;11.820;2022-08-19T07:27:49;20.00;94.52
67722;SHT31;58309;45.292;11.820;2022-08-19T07:30:15;20.02;94.01
67722;SHT31;58309;45.292;11.820;2022-08-19T07:32:41;20.00;94.06
67722;SHT31;58309;45.292;11.820;2022-08-19T07:35:08;20.00;93.65
67722;SHT31;58309;45.292;11.820;2022-08-19T07:37:34;20.05;94.80
67722;SHT31;58309;45.292;11.820;2022-08-19T07:40:05;20.00;94.39
67722;SHT31;58309;45.292;11.820;2022-08-19T07:42:31;20.00;95.08
67722;SHT31;58309;45.292;11.820;2022-08-19T07:44:57;20.02;94.98
67722;SHT31;58309;45.292;11.820;2022-08-19T07:47:23;20.00;94.00
67722;SHT31;58309;45.292;11.820;2022-08-19T07:49:48;20.02;95.14
67722;SHT31;58309;45.292;11.820;2022-08-19T07:52:14;19.99;94.41
67722;SHT31;58309;45.292;11.820;2022-08-19T07:54:40;19.99;95.05
67722;SHT31;58309;45.292;11.820;2022-08-19T07:57:07;19.99;94.37
67722;SHT31;58309;45.292;11.820;2022-08-19T07:59:33;19.95;95.31
67722;SHT31;58309;45.292;11.820;2022-08-19T08:01:59;19.93;94.94
67722;SHT31;58309;45.292;11.820;2022-08-19T08:04:28;20.10;93.62
67722;SHT31;58309;45.292;11.820;2022-08-19T08:07:13;20.17;93.50
67722;SHT31;58309;45.292;11.820;2022-08-19T08:09:58;20.16;92.64
67722;SHT31;58309;45.292;11.820;2022-08-19T08:12:28;20.10;93.46
67722;SHT31;58309;45.292;11.820;2022-08-19T08:14:57;19.99;95.09
67722;SHT31;58309;45.292;11.820;2022-08-19T08:17:26;19.82;95.98
67722;SHT31;58309;45.292;11.820;2022-08-19T08:19:52;19.68;96.98
67722;SHT31;58309;45.292;11.820;2022-08-19T08:22:20;19.61;98.28
67722;SHT31;58309;45.292;11.820;2022-08-19T08:25:12;19.43;97.25
67722;SHT31;58309;45.292;11.820;2022-08-19T08:27:42;19.31;98.01
67722;SHT31;58309;45.292;11.820;2022-08-19T08:30:11;19.18;98.49
67722;SHT31;58309;45.292;11.820;2022-08-19T08:32:38;19.08;98.68
67722;SHT31;58309;45.292;11.820;2022-08-19T08:35:07;19.03;98.66
67722;SHT31;58309;45.292;11.820;2022-08-19T08:37:34;18.97;98.74
67722;SHT31;58309;45.292;11.820;2022-08-19T08:40:16;18.96;98.99
67722;SHT31;58309;45.292;11.820;2022-08-19T08:43:24;18.93;99.47
67722;SHT31;58309;45.292;11.820;2022-08-19T08:45:46;18.92;99.48
67722;SHT31;58309;45.292;11.820;2022-08-19T08:48:32;18.92;99.37
67722;SHT31;58309;45.292;11.820;2022-08-19T08:51:03;18.92;99.36
67722;SHT31;58309;45.292;11.820;2022-08-19T08:53:30;18.93;99.51
67722;SHT31;58309;45.292;11.820;2022-08-19T08:55:58;18.96;99.40
67722;SHT31;58309;45.292;11.820;2022-08-19T08:58:54;18.97;99.42
67722;SHT31;58309;45.292;11.820;2022-08-19T09:01:21;18.93;99.25
67722;SHT31;58309;45.292;11.820;2022-08-19T09:03:47;18.94;99.27
67722;SHT31;58309;45.292;11.820;2022-08-19T09:11:47;19.13;99.48
67722;SHT31;58309;45.292;11.820;2022-08-19T09:17:25;19.21;98.78
67722;SHT31;58309;45.292;11.820;2022-08-19T09:20:15;19.28;99.07
67722;SHT31;58309;45.292;11.820;2022-08-19T09:22:43;19.32;98.83
67722;SHT31;58309;45.292;11.820;2022-08-19T09:25:14;19.30;98.21
67722;SHT31;58309;45.292;11.820;2022-08-19T09:27:41;19.41;98.48
67722;SHT31;58309;45.292;11.820;2022-08-19T09:30:09;19.48;98.61
67722;SHT31;58309;45.292;11.820;2022-08-19T09:32:35;19.47;98.35
67722;SHT31;58309;45.292;11.820;2022-08-19T09:35:01;19.51;98.28
67722;SHT31;58309;45.292;11.820;2022-08-19T09:37:27;19.57;98.12
67722;SHT31;58309;45.292;11.820;2022-08-19T09:39:52;19.64;98.62
67722;SHT31;58309;45.292;11.820;2022-08-19T09:42:19;19.69;97.87
67722;SHT31;58309;45.292;11.820;2022-08-19T09:44:46;19.75;97.78
67722;SHT31;58309;45.292;11.820;2022-08-19T09:47:13;19.85;97.72
67722;SHT31;58309;45.292;11.820;2022-08-19T09:49:39;19.87;97.06
67722;SHT31;58309;45.292;11.820;2022-08-19T09:52:07;19.92;97.20
67722;SHT31;58309;45.292;11.820;2022-08-19T09:54:33;20.03;96.26
67722;SHT31;58309;45.292;11.820;2022-08-19T09:56:59;20.05;95.38
67722;SHT31;58309;45.292;11.820;2022-08-19T09:59:28;20.12;94.89
67722;SHT31;58309;45.292;11.820;2022-08-19T10:01:54;20.24;95.37
67722;SHT31;58309;45.292;11.820;2022-08-19T10:04:20;20.61;96.28
67722;SHT31;58309;45.292;11.820;2022-08-19T10:06:47;20.98;96.60
67722;SHT31;58309;45.292;11.820;2022-08-19T10:09:15;21.28;94.85
67722;SHT31;58309;45.292;11.820;2022-08-19T10:11:42;21.28;91.10
67722;SHT31;58309;45.292;11.820;2022-08-19T10:14:08;21.32;92.64
67722;SHT31;58309;45.292;11.820;2022-08-19T10:16:36;21.32;92.79
67722;SHT31;58309;45.292;11.820;2022-08-19T10:19:02;21.22;91.11
67722;SHT31;58309;45.292;11.820;2022-08-19T10:21:30;21.38;94.01
67722;SHT31;58309;45.292;11.820;2022-08-19T10:23:59;21.52;91.91
67722;SHT31;58309;45.292;11.820;2022-08-19T10:26:30;21.82;93.19
67722;SHT31;58309;45.292;11.820;2022-08-19T10:28:57;21.92;90.33
67722;SHT31;58309;45.292;11.820;2022-08-19T10:31:25;22.22;90.82
67722;SHT31;58309;45.292;11.820;2022-08-19T10:33:51;22.55;88.53
67722;SHT31;58309;45.292;11.820;2022-08-19T10:36:24;22.92;88.40
67722;SHT31;58309;45.292;11.820;2022-08-19T10:38:52;23.31;88.68
67722;SHT31;58309;45.292;11.820;2022-08-19T10:41:22;23.89;83.99
67722;SHT31;58309;45.292;11.820;2022-08-19T10:43:50;24.23;84.67
67722;SHT31;58309;45.292;11.820;2022-08-19T10:46:18;24.19;86.58
67722;SHT31;58309;45.292;11.820;2022-08-19T10:48:44;25.34;77.01
67722;SHT31;58309;45.292;11.820;2022-08-19T10:51:10;26.50;76.85
67722;SHT31;58309;45.292;11.820;2022-08-19T10:53:57;27.62;72.55
67722;SHT31;58309;45.292;11.820;2022-08-19T10:56:24;28.29;69.34
67722;SHT31;58309;45.292;11.820;2022-08-19T10:59:08;29.41;67.62
67722;SHT31;58309;45.292;11.820;2022-08-19T11:01:34;29.95;65.42
67722;SHT31;58309;45.292;11.820;2022-08-19T11:04:02;31.21;61.97
67722;SHT31;58309;45.292;11.820;2022-08-19T11:06:28;31.97;60.08
67722;SHT31;58309;45.292;11.820;2022-08-19T11:08:55;32.60;51.91
67722;SHT31;58309;45.292;11.820;2022-08-19T11:11:22;32.44;54.19
67722;SHT31;58309;45.292;11.820;2022-08-19T11:13:48;32.47;50.40
67722;SHT31;58309;45.292;11.820;2022-08-19T11:16:26;31.93;53.94
67722;SHT31;58309;45.292;11.820;2022-08-19T11:18:55;31.24;53.27
67722;SHT31;58309;45.292;11.820;2022-08-19T11:21:28;31.32;54.79
67722;SHT31;58309;45.292;11.820;2022-08-19T11:23:57;31.11;53.35
67722;SHT31;58309;45.292;11.820;2022-08-19T11:26:23;31.63;51.84
67722;SHT31;58309;45.292;11.820;2022-08-19T11:28:50;31.39;54.20
67722;SHT31;58309;45.292;11.820;2022-08-19T11:31:21;30.53;58.23
67722;SHT31;58309;45.292;11.820;2022-08-19T11:33:47;29.85;58.11
67722;SHT31;58309;45.292;11.820;2022-08-19T11:36:16;28.78;57.76
67722;SHT31;58309;45.292;11.820;2022-08-19T11:38:42;28.31;63.75
67722;SHT31;58309;45.292;11.820;2022-08-19T11:41:07;28.56;62.33
67722;SHT31;58309;45.292;11.820;2022-08-19T11:43:34;29.13;63.90
67722;SHT31;58309;45.292;11.820;2022-08-19T11:46:04;29.37;63.07
67722;SHT31;58309;45.292;11.820;2022-08-19T11:48:29;29.94;62.26
67722;SHT31;58309;45.292;11.820;2022-08-19T11:50:58;30.60;55.47
67722;SHT31;58309;45.292;11.820;2022-08-19T11:53:23;31.32;54.23
67722;SHT31;58309;45.292;11.820;2022-08-19T11:55:52;32.17;54.90
67722;SHT31;58309;45.292;11.820;2022-08-19T11:58:21;32.92;50.77
67722;SHT31;58309;45.292;11.820;2022-08-19T12:00:47;33.17;49.70
67722;SHT31;58309;45.292;11.820;2022-08-19T12:03:13;32.97;50.91
67722;SHT31;58309;45.292;11.820;2022-08-19T12:05:40;32.87;50.04
67722;SHT31;58309;45.292;11.820;2022-08-19T12:08:06;32.84;47.22
67722;SHT31;58309;45.292;11.820;2022-08-19T12:10:33;32.29;50.35
67722;SHT31;58309;45.292;11.820;2022-08-19T12:12:59;31.73;51.19
67722;SHT31;58309;45.292;11.820;2022-08-19T12:15:25;31.68;53.12
67722;SHT31;58309;45.292;11.820;2022-08-19T12:17:52;31.28;54.05
67722;SHT31;58309;45.292;11.820;2022-08-19T12:20:20;31.07;53.14
67722;SHT31;58309;45.292;11.820;2022-08-19T12:22:45;30.09;53.36
67722;SHT31;58309;45.292;11.820;2022-08-19T12:25:11;29.94;55.62
67722;SHT31;58309;45.292;11.820;2022-08-19T12:27:38;29.68;57.64
67722;SHT31;58309;45.292;11.820;2022-08-19T12:30:06;29.30;58.85
67722;SHT31;58309;45.292;11.820;2022-08-19T12:32:32;28.11;60.90
67722;SHT31;58309;45.292;11.820;2022-08-19T12:34:58;27.56;67.64
67722;SHT31;58309;45.292;11.820;2022-08-19T12:37:23;27.11;68.96
67722;SHT31;58309;45.292;11.820;2022-08-19T12:39:48;26.99;70.18
67722;SHT31;58309;45.292;11.820;2022-08-19T12:42:16;26.90;70.62
67722;SHT31;58309;45.292;11.820;2022-08-19T12:44:45;26.36;70.64
67722;SHT31;58309;45.292;11.820;2022-08-19T12:47:12;26.24;71.31
67722;SHT31;58309;45.292;11.820;2022-08-19T12:49:40;26.47;71.16
67722;SHT31;58309;45.292;11.820;2022-08-19T12:52:07;26.53;70.26
67722;SHT31;58309;45.292;11.820;2022-08-19T12:54:34;26.27;69.70
67722;SHT31;58309;45.292;11.820;2022-08-19T12:57:00;26.09;72.07
67722;SHT31;58309;45.292;11.820;2022-08-19T12:59:29;26.06;71.76
67722;SHT31;58309;45.292;11.820;2022-08-19T13:01:55;26.02;71.26
67722;SHT31;58309;45.292;11.820;2022-08-19T13:04:20;26.02;71.36
67722;SHT31;58309;45.292;11.820;2022-08-19T13:06:46;25.89;70.99
67722;SHT31;58309;45.292;11.820;2022-08-19T13:09:11;25.92;72.49
67722;SHT31;58309;45.292;11.820;2022-08-19T13:11:37;25.78;71.09
67722;SHT31;58309;45.292;11.820;2022-08-19T13:14:03;25.92;71.86
67722;SHT31;58309;45.292;11.820;2022-08-19T13:16:30;26.10;70.89
67722;SHT31;58309;45.292;11.820;2022-08-19T13:18:57;26.14;70.92
67722;SHT31;58309;45.292;11.820;2022-08-19T13:21:26;26.13;70.73
67722;SHT31;58309;45.292;11.820;2022-08-19T13:23:53;26.19;70.03
67722;SHT31;58309;45.292;11.820;2022-08-19T13:26:19;26.22;71.42
67722;SHT31;58309;45.292;11.820;2022-08-19T13:28:46;26.27;70.56
67722;SHT31;58309;45.292;11.820;2022-08-19T13:31:34;26.40;70.03
67722;SHT31;58309;45.292;11.820;2022-08-19T13:34:27;26.65;70.03
67722;SHT31;58309;45.292;11.820;2022-08-19T13:36:53;26.87;69.21
67722;SHT31;58309;45.292;11.820;2022-08-19T13:39:19;27.02;70.15
67722;SHT31;58309;45.292;11.820;2022-08-19T13:41:45;27.12;67.60
67722;SHT31;58309;45.292;11.820;2022-08-19T13:44:16;27.09;66.95
67722;SHT31;58309;45.292;11.820;2022-08-19T13:46:46;27.06;67.45
67722;SHT31;58309;45.292;11.820;2022-08-19T13:49:14;27.16;66.77
67722;SHT31;58309;45.292;11.820;2022-08-19T13:51:41;27.11;65.71
67722;SHT31;58309;45.292;11.820;2022-08-19T13:54:07;27.02;66.16
67722;SHT31;58309;45.292;11.820;2022-08-19T13:56:34;27.06;64.99
67722;SHT31;58309;45.292;11.820;2022-08-19T13:59:00;26.92;66.26
67722;SHT31;58309;45.292;11.820;2022-08-19T14:01:26;27.02;66.76
67722;SHT31;58309;45.292;11.820;2022-08-19T14:03:52;27.12;68.08
67722;SHT31;58309;45.292;11.820;2022-08-19T14:06:18;27.23;67.21
67722;SHT31;58309;45.292;11.820;2022-08-19T14:08:44;27.35;65.38
67722;SHT31;58309;45.292;11.820;2022-08-19T14:11:10;27.35;66.21
67722;SHT31;58309;45.292;11.820;2022-08-19T14:13:36;27.35;63.80
67722;SHT31;58309;45.292;11.820;2022-08-19T14:16:09;27.31;65.57
67722;SHT31;58309;45.292;11.820;2022-08-19T14:18:35;27.29;64.78
67722;SHT31;58309;45.292;11.820;2022-08-19T14:21:01;27.23;67.20
67722;SHT31;58309;45.292;11.820;2022-08-19T14:23:28;27.29;66.78
67722;SHT31;58309;45.292;11.820;2022-08-19T14:26:03;27.28;65.19
67722;SHT31;58309;45.292;11.820;2022-08-19T14:28:29;27.16;66.80
67722;SHT31;58309;45.292;11.820;2022-08-19T14:30:55;27.11;67.17
67722;SHT31;58309;45.292;11.820;2022-08-19T14:33:20;27.28;71.38
67722;SHT31;58309;45.292;11.820;2022-08-19T14:35:46;27.28;65.99
67722;SHT31;58309;45.292;11.820;2022-08-19T14:38:16;27.25;66.66
67722;SHT31;58309;45.292;11.820;2022-08-19T14:40:42;27.23;65.61
67722;SHT31;58309;45.292;11.820;2022-08-19T14:43:08;27.18;64.98
67722;SHT31;58309;45.292;11.820;2022-08-19T14:45:36;27.19;67.33
67722;SHT31;58309;45.292;11.820;2022-08-19T14:48:03;27.29;68.04
67722;SHT31;58309;45.292;11.820;2022-08-19T14:50:29;27.26;65.66
67722;SHT31;58309;45.292;11.820;2022-08-19T14:53:00;27.36;66.41
67722;SHT31;58309;45.292;11.820;2022-08-19T14:55:29;27.39;64.94
67722;SHT31;58309;45.292;11.820;2022-08-19T14:57:55;27.43;65.96
67722;SHT31;58309;45.292;11.820;2022-08-19T15:00:21;27.26;66.87
67722;SHT31;58309;45.292;11.820;2022-08-19T15:02:48;27.09;66.49
67722;SHT31;58309;45.292;11.820;2022-08-19T15:05:14;26.92;67.23
67722;SHT31;58309;45.292;11.820;2022-08-19T15:07:40;26.88;66.07
67722;SHT31;58309;45.292;11.820;2022-08-19T15:10:07;26.82;66.29
67722;SHT31;58309;45.292;11.820;2022-08-19T15:12:37;26.74;65.74
67722;SHT31;58309;45.292;11.820;2022-08-19T15:15:10;26.70;65.64
67722;SHT31;58309;45.292;11.820;2022-08-19T15:17:38;26.57;67.14
67722;SHT31;58309;45.292;11.820;2022-08-19T15:20:05;26.41;69.38
67722;SHT31;58309;45.292;11.820;2022-08-19T15:22:31;26.41;69.67
67722;SHT31;58309;45.292;11.820;2022-08-19T15:24:57;26.44;68.27
67722;SHT31;58309;45.292;11.820;2022-08-19T15:27:22;26.44;67.18
67722;SHT31;58309;45.292;11.820;2022-08-19T15:29:48;26.48;66.73
67722;SHT31;58309;45.292;11.820;2022-08-19T15:34:57;26.48;65.98